createdAt,value
2018-07-25T00:02:00.183Z,18.00
2018-07-25T00:04:28.690Z,17.97
2018-07-25T00:06:57.356Z,17.95
2018-07-25T00:09:26.033Z,17.94
2018-07-25T00:11:54.538Z,17.93
2018-07-25T00:14:23.199Z,17.91
2018-07-25T00:16:51.746Z,17.88
2018-07-25T00:19:20.364Z,17.85
2018-07-25T00:21:49.050Z,17.84
2018-07-25T00:24:17.633Z,17.81
2018-07-25T00:26:46.318Z,17.78
2018-07-25T00:29:14.901Z,17.76
2018-07-25T00:31:43.447Z,17.75
2018-07-25T00:34:12.067Z,17.72
2018-07-25T00:36:40.639Z,17.69
2018-07-25T00:39:09.953Z,17.67
2018-07-25T00:41:38.737Z,17.66
2018-07-25T00:44:07.362Z,17.63
2018-07-25T00:46:36.108Z,17.62
2018-07-25T00:49:04.793Z,17.52
2018-07-25T00:51:33.290Z,17.56
2018-07-25T00:54:01.915Z,17.55
2018-07-25T00:56:30.543Z,17.52
2018-07-25T00:58:59.228Z,17.53
2018-07-25T01:01:27.907Z,17.52
2018-07-25T01:03:56.419Z,17.49
2018-07-25T01:06:25.182Z,17.43
2018-07-25T01:08:53.922Z,17.53
2018-07-25T01:11:22.553Z,17.52
2018-07-25T01:13:51.240Z,17.50
2018-07-25T01:16:21.049Z,17.46
2018-07-25T01:18:49.732Z,17.45
2018-07-25T01:21:18.420Z,17.44
2018-07-25T01:23:47.106Z,17.43
2018-07-25T01:26:15.740Z,17.45
2018-07-25T01:28:44.315Z,17.47
2018-07-25T01:31:12.957Z,17.52
2018-07-25T01:33:41.644Z,17.56
2018-07-25T01:36:10.328Z,17.58
2018-07-25T01:38:39.113Z,17.58
2018-07-25T01:41:07.715Z,17.57
2018-07-25T01:43:36.367Z,17.54
2018-07-25T01:46:05.334Z,17.55
2018-07-25T01:48:33.899Z,17.55
2018-07-25T01:51:02.540Z,17.54
2018-07-25T01:53:31.122Z,17.52
2018-07-25T01:55:59.734Z,17.48
2018-07-25T01:58:28.331Z,17.46
2018-07-25T02:00:56.986Z,17.47
2018-07-25T02:03:26.273Z,17.50
2018-07-25T02:05:54.958Z,17.53
2018-07-25T02:08:23.488Z,17.54
2018-07-25T02:10:52.138Z,17.56
2018-07-25T02:13:20.809Z,17.59
2018-07-25T02:15:49.391Z,17.63
2018-07-25T02:18:18.002Z,17.63
2018-07-25T02:20:46.616Z,17.66
2018-07-25T02:23:15.243Z,17.68
2018-07-25T02:25:43.870Z,17.71
2018-07-25T02:28:12.451Z,17.72
2018-07-25T02:30:41.094Z,17.76
2018-07-25T02:33:09.780Z,17.81
2018-07-25T02:35:38.286Z,17.82
2018-07-25T02:38:06.945Z,17.82
2018-07-25T02:40:35.482Z,17.80
2018-07-25T02:43:04.027Z,17.76
2018-07-25T02:45:37.782Z,17.72
2018-07-25T02:48:06.427Z,17.69
2018-07-25T02:50:35.023Z,17.68
2018-07-25T02:53:04.051Z,17.67
2018-07-25T02:55:32.658Z,17.67
2018-07-25T02:58:01.241Z,17.65
2018-07-25T03:00:29.929Z,17.62
2018-07-25T03:02:58.480Z,17.56
2018-07-25T03:05:27.093Z,17.55
2018-07-25T03:07:55.777Z,17.52
2018-07-25T03:10:24.462Z,17.51
2018-07-25T03:12:53.353Z,17.48
2018-07-25T03:15:22.042Z,17.51
2018-07-25T03:17:50.723Z,17.58
2018-07-25T03:20:19.539Z,17.63
2018-07-25T03:22:48.111Z,17.67
2018-07-25T03:25:16.778Z,17.69
2018-07-25T03:27:45.403Z,17.70
2018-07-25T03:30:14.045Z,17.67
2018-07-25T03:32:42.728Z,17.63
2018-07-25T03:35:11.416Z,17.65
2018-07-25T03:37:40.307Z,17.65
2018-07-25T03:40:08.991Z,17.63
2018-07-25T03:42:37.679Z,17.67
2018-07-25T03:45:06.291Z,17.71
2018-07-25T03:47:35.606Z,17.74
2018-07-25T03:50:05.269Z,17.77
2018-07-25T03:52:33.957Z,17.80
2018-07-25T03:55:02.540Z,17.87
2018-07-25T03:57:31.072Z,17.91
2018-07-25T03:59:59.657Z,17.97
2018-07-25T04:02:28.302Z,18.02
2018-07-25T04:04:56.970Z,18.11
2018-07-25T04:07:25.553Z,18.16
2018-07-25T04:09:54.052Z,18.22
2018-07-25T04:12:22.532Z,18.30
2018-07-25T04:14:51.246Z,18.37
2018-07-25T04:17:19.792Z,18.43
2018-07-25T04:19:48.573Z,18.52
2018-07-25T04:22:17.256Z,18.62
2018-07-25T04:24:45.915Z,18.72
2018-07-25T04:27:14.470Z,18.79
2018-07-25T04:29:43.155Z,18.86
2018-07-25T04:32:11.818Z,18.92
2018-07-25T04:34:40.385Z,18.97
2018-07-25T04:37:09.165Z,19.06
2018-07-25T04:39:38.569Z,19.09
2018-07-25T04:42:07.227Z,19.16
2018-07-25T04:44:35.761Z,19.23
2018-07-25T04:47:04.358Z,19.32
2018-07-25T04:49:32.999Z,19.40
2018-07-25T04:52:01.524Z,19.44
2018-07-25T04:54:30.155Z,19.52
2018-07-25T04:56:58.651Z,19.59
2018-07-25T04:59:27.334Z,19.70
2018-07-25T05:01:56.034Z,19.77
2018-07-25T05:04:24.642Z,19.85
2018-07-25T05:06:53.286Z,19.90
2018-07-25T05:09:21.810Z,20.02
2018-07-25T05:11:50.556Z,20.13
2018-07-25T05:14:19.191Z,20.21
2018-07-25T05:16:47.845Z,20.28
2018-07-25T05:19:16.511Z,20.39
2018-07-25T05:21:45.097Z,20.50
2018-07-25T05:24:13.610Z,20.62
2018-07-25T05:26:42.106Z,20.74
2018-07-25T05:29:11.452Z,20.87
2018-07-25T05:31:40.041Z,21.00
2018-07-25T05:34:08.702Z,21.15
2018-07-25T05:36:37.304Z,21.30
2018-07-25T05:39:09.223Z,21.45
2018-07-25T05:41:38.155Z,21.59
2018-07-25T05:44:06.841Z,21.70
2018-07-25T05:46:35.371Z,21.85
2018-07-25T05:49:04.314Z,22.01
2018-07-25T05:51:33.000Z,22.17
2018-07-25T05:54:02.406Z,22.30
2018-07-25T05:56:31.001Z,22.41
2018-07-25T05:59:00.199Z,22.53
2018-07-25T06:01:28.971Z,22.67
2018-07-25T06:03:57.760Z,22.81
2018-07-25T06:06:26.343Z,22.92
2018-07-25T06:08:55.037Z,23.07
2018-07-25T06:11:24.491Z,23.21
2018-07-25T06:13:53.141Z,23.34
2018-07-25T06:16:21.800Z,23.47
2018-07-25T06:18:50.491Z,23.61
2018-07-25T06:21:19.111Z,23.71
2018-07-25T06:23:47.711Z,23.81
2018-07-25T06:26:16.338Z,23.90
2018-07-25T06:28:45.075Z,24.01
2018-07-25T06:31:13.741Z,24.09
2018-07-25T06:33:42.391Z,24.20
2018-07-25T06:36:10.962Z,24.27
2018-07-25T06:38:39.659Z,24.32
2018-07-25T06:41:08.179Z,24.40
2018-07-25T06:43:36.883Z,24.48
2018-07-25T06:46:05.661Z,24.54
2018-07-25T06:48:34.270Z,24.61
2018-07-25T06:51:03.027Z,24.72
2018-07-25T06:53:31.547Z,24.82
2018-07-25T06:56:00.215Z,24.91
2018-07-25T06:58:28.754Z,24.99
2018-07-25T07:00:57.367Z,25.03
2018-07-25T07:03:25.947Z,25.13
2018-07-25T07:05:54.500Z,25.20
2018-07-25T07:08:23.165Z,24.95
2018-07-25T07:10:51.666Z,25.37
2018-07-25T07:13:20.228Z,25.44
2018-07-25T07:15:48.812Z,25.53
2018-07-25T07:18:17.394Z,25.55
2018-07-25T07:20:46.081Z,25.58
2018-07-25T07:23:14.697Z,25.66
2018-07-25T07:25:43.307Z,25.76
2018-07-25T07:28:11.876Z,25.86
2018-07-25T07:30:40.514Z,25.97
2018-07-25T07:33:09.096Z,26.01
2018-07-25T07:35:37.783Z,26.10
2018-07-25T07:38:06.775Z,26.15
2018-07-25T07:40:35.302Z,26.15
2018-07-25T07:43:03.823Z,26.15
2018-07-25T07:45:33.547Z,26.22
2018-07-25T07:48:02.238Z,26.28
2018-07-25T07:50:30.814Z,26.30
2018-07-25T07:53:00.775Z,26.35
2018-07-25T07:55:29.608Z,26.40
2018-07-25T07:57:58.923Z,26.46
2018-07-25T08:00:28.117Z,26.50
2018-07-25T08:02:56.706Z,26.51
2018-07-25T08:05:25.488Z,26.50
2018-07-25T08:07:54.004Z,26.48
2018-07-25T08:10:22.655Z,26.45
2018-07-25T08:12:51.237Z,26.48
2018-07-25T08:15:19.771Z,26.59
2018-07-25T08:17:49.175Z,26.68
2018-07-25T08:20:17.695Z,26.71
2018-07-25T08:22:46.761Z,26.60
2018-07-25T08:25:15.334Z,26.51
2018-07-25T08:27:44.679Z,26.47
2018-07-25T08:30:13.873Z,26.53
2018-07-25T08:32:43.238Z,26.62
2018-07-25T08:35:11.805Z,26.69
2018-07-25T08:37:40.374Z,26.72
2018-07-25T08:40:09.026Z,26.83
2018-07-25T08:42:37.546Z,26.89
2018-07-25T08:45:07.262Z,26.88
2018-07-25T08:47:35.782Z,26.82
2018-07-25T08:50:06.055Z,26.75
2018-07-25T08:52:34.757Z,26.76
2018-07-25T08:55:03.459Z,26.86
2018-07-25T08:57:32.020Z,26.99
2018-07-25T09:00:00.557Z,27.10
2018-07-25T09:02:29.250Z,27.11
2018-07-25T09:04:57.873Z,27.26
2018-07-25T09:07:26.624Z,27.38
2018-07-25T09:09:55.262Z,27.37
2018-07-25T09:12:23.968Z,27.27
2018-07-25T09:14:52.568Z,27.09
2018-07-25T09:17:21.204Z,26.98
2018-07-25T09:19:50.024Z,26.96
2018-07-25T09:22:18.623Z,27.08
2018-07-25T09:24:47.327Z,27.24
2018-07-25T09:27:15.954Z,27.35
2018-07-25T09:29:44.593Z,27.37
2018-07-25T09:32:13.364Z,27.26
2018-07-25T09:34:41.988Z,27.32
2018-07-25T09:37:10.639Z,27.35
2018-07-25T09:39:39.317Z,27.50
2018-07-25T09:42:08.001Z,27.41
2018-07-25T09:44:36.534Z,27.30
2018-07-25T09:47:05.441Z,27.23
2018-07-25T09:49:33.882Z,27.23
2018-07-25T09:52:02.539Z,27.25
2018-07-25T09:54:31.225Z,27.24
2018-07-25T09:56:59.767Z,27.20
2018-07-25T09:59:28.283Z,27.15
2018-07-25T10:01:56.973Z,27.00
2018-07-25T10:04:25.659Z,26.95
2018-07-25T10:06:54.286Z,26.83
2018-07-25T10:09:22.883Z,26.81
2018-07-25T10:11:51.411Z,26.84
2018-07-25T10:14:20.040Z,26.92
2018-07-25T10:16:48.579Z,27.05
2018-07-25T10:19:17.083Z,27.11
2018-07-25T10:21:45.772Z,27.12
2018-07-25T10:24:14.396Z,27.08
2018-07-25T10:26:43.487Z,26.99
2018-07-25T10:29:12.069Z,26.88
2018-07-25T10:31:40.709Z,26.84
2018-07-25T10:34:09.462Z,26.93
2018-07-25T10:36:38.364Z,27.04
2018-07-25T10:39:09.078Z,27.07
2018-07-25T10:41:37.785Z,27.04
2018-07-25T10:44:06.877Z,27.11
2018-07-25T10:46:35.867Z,27.12
2018-07-25T10:49:04.964Z,27.05
2018-07-25T10:51:33.790Z,27.04
2018-07-25T10:54:02.438Z,27.09
2018-07-25T10:56:31.122Z,27.21
2018-07-25T10:58:59.809Z,27.28
2018-07-25T11:01:28.492Z,27.20
2018-07-25T11:03:57.285Z,27.20
2018-07-25T11:06:25.966Z,27.12
2018-07-25T11:08:54.647Z,27.12
2018-07-25T11:11:23.439Z,27.25
2018-07-25T11:13:51.937Z,27.33
2018-07-25T11:16:20.606Z,27.28
2018-07-25T11:18:49.189Z,27.29
2018-07-25T11:21:17.772Z,27.35
2018-07-25T11:23:46.357Z,27.43
2018-07-25T11:26:14.968Z,27.42
2018-07-25T11:28:43.523Z,27.44
2018-07-25T11:31:12.716Z,27.38
2018-07-25T11:33:41.223Z,27.44
2018-07-25T11:36:09.797Z,27.58
2018-07-25T11:38:38.415Z,27.71
2018-07-25T11:41:07.478Z,27.79
2018-07-25T11:43:36.115Z,27.85
2018-07-25T11:46:04.828Z,27.82
2018-07-25T11:48:33.427Z,27.86
2018-07-25T11:51:01.968Z,27.92
2018-07-25T11:53:30.506Z,27.95
2018-07-25T11:55:59.162Z,28.03
2018-07-25T11:58:27.672Z,28.02
2018-07-25T12:00:56.284Z,27.98
2018-07-25T12:03:24.909Z,27.94
2018-07-25T12:05:53.489Z,27.89
2018-07-25T12:08:22.031Z,28.01
2018-07-25T12:10:50.699Z,28.07
2018-07-25T12:13:19.264Z,28.08
2018-07-25T12:15:47.773Z,28.09
2018-07-25T12:18:16.428Z,28.21
2018-07-25T12:20:44.934Z,28.33
2018-07-25T12:23:13.504Z,28.41
2018-07-25T12:25:42.099Z,28.43
2018-07-25T12:28:10.683Z,28.40
2018-07-25T12:30:39.283Z,28.43
2018-07-25T12:33:08.007Z,28.39
2018-07-25T12:35:36.628Z,28.45
2018-07-25T12:38:05.302Z,28.51
2018-07-25T12:40:33.959Z,28.54
2018-07-25T12:43:02.697Z,28.47
2018-07-25T12:45:31.296Z,28.54
2018-07-25T12:47:59.899Z,28.60
2018-07-25T12:50:28.495Z,28.78
2018-07-25T12:52:57.077Z,28.89
2018-07-25T12:55:25.763Z,28.89
2018-07-25T12:57:54.512Z,28.79
2018-07-25T13:00:23.166Z,28.65
2018-07-25T13:02:51.865Z,28.77
2018-07-25T13:05:20.403Z,28.72
2018-07-25T13:07:48.927Z,28.65
2018-07-25T13:10:17.482Z,28.73
2018-07-25T13:12:46.111Z,28.72
2018-07-25T13:15:14.737Z,28.73
2018-07-25T13:17:43.422Z,28.74
2018-07-25T13:20:12.019Z,28.84
2018-07-25T13:22:40.709Z,28.82
2018-07-25T13:25:09.423Z,28.82
2018-07-25T13:27:37.978Z,28.77
2018-07-25T13:30:07.202Z,28.62
2018-07-25T13:32:35.790Z,28.69
2018-07-25T13:35:04.832Z,28.75
2018-07-25T13:37:33.451Z,28.88
2018-07-25T13:40:02.126Z,28.96
2018-07-25T13:42:31.038Z,28.85
2018-07-25T13:44:59.598Z,28.75
2018-07-25T13:47:28.191Z,28.66
2018-07-25T13:49:56.942Z,28.43
2018-07-25T13:52:25.547Z,28.43
2018-07-25T13:54:54.126Z,28.49
2018-07-25T13:57:22.999Z,28.51
2018-07-25T13:59:51.752Z,28.44
2018-07-25T14:02:20.323Z,28.48
2018-07-25T14:04:49.007Z,28.59
2018-07-25T14:07:18.170Z,28.61
2018-07-25T14:09:46.778Z,28.64
2018-07-25T14:12:15.357Z,28.37
2018-07-25T14:14:43.962Z,28.48
2018-07-25T14:17:12.626Z,28.49
2018-07-25T14:19:41.146Z,28.41
2018-07-25T14:22:09.688Z,28.44
2018-07-25T14:24:38.254Z,28.49
2018-07-25T14:27:06.956Z,28.57
2018-07-25T14:29:35.547Z,28.44
2018-07-25T14:32:04.392Z,28.36
2018-07-25T14:34:33.079Z,28.26
2018-07-25T14:37:01.723Z,28.30
2018-07-25T14:39:30.448Z,28.25
2018-07-25T14:41:59.061Z,28.19
2018-07-25T14:44:27.662Z,28.30
2018-07-25T14:46:56.172Z,28.39
2018-07-25T14:49:24.885Z,28.32
2018-07-25T14:51:53.429Z,28.26
2018-07-25T14:54:22.088Z,28.00
2018-07-25T14:56:50.634Z,27.93
2018-07-25T14:59:19.415Z,27.77
2018-07-25T15:01:48.135Z,27.79
2018-07-25T15:04:16.787Z,27.79
2018-07-25T15:06:45.470Z,27.89
2018-07-25T15:09:14.112Z,27.97
2018-07-25T15:11:42.790Z,27.78
2018-07-25T15:14:11.428Z,27.72
2018-07-25T15:16:40.045Z,27.87
2018-07-25T15:19:08.797Z,27.92
2018-07-25T15:21:37.583Z,28.06
2018-07-25T15:24:07.424Z,28.04
2018-07-25T15:26:36.027Z,27.89
2018-07-25T15:29:04.987Z,27.79
2018-07-25T15:31:33.599Z,27.74
2018-07-25T15:34:02.508Z,27.86
2018-07-25T15:36:43.307Z,27.91
2018-07-25T15:39:17.907Z,27.91
2018-07-25T15:41:47.753Z,27.88
2018-07-25T15:44:17.299Z,27.89
2018-07-25T15:46:46.094Z,27.86
2018-07-25T15:49:14.727Z,27.91
2018-07-25T15:51:43.413Z,27.87
2018-07-25T15:54:12.150Z,27.73
2018-07-25T15:56:42.294Z,27.39
2018-07-25T15:59:11.008Z,27.20
2018-07-25T16:01:39.701Z,27.30
2018-07-25T16:04:08.738Z,27.46
2018-07-25T16:06:37.471Z,27.50
2018-07-25T16:09:09.690Z,27.51
2018-07-25T16:11:38.662Z,27.45
2018-07-25T16:14:07.520Z,27.49
2018-07-25T16:16:36.154Z,27.56
2018-07-25T16:19:04.939Z,27.54
2018-07-25T16:21:33.576Z,27.30
2018-07-25T16:24:02.248Z,27.44
2018-07-25T16:26:30.758Z,27.47
2018-07-25T16:28:59.555Z,27.25
2018-07-25T16:31:28.820Z,26.82
2018-07-25T16:33:57.924Z,26.79
2018-07-25T16:36:26.607Z,26.65
2018-07-25T16:38:55.226Z,26.81
2018-07-25T16:41:23.928Z,26.83
2018-07-25T16:43:52.563Z,26.78
2018-07-25T16:46:21.106Z,26.40
2018-07-25T16:48:49.661Z,26.12
2018-07-25T16:51:18.310Z,26.30
2018-07-25T16:53:46.939Z,26.34
2018-07-25T16:56:15.525Z,26.30
2018-07-25T16:58:44.103Z,26.17
2018-07-25T17:01:12.749Z,25.93
2018-07-25T17:03:41.432Z,25.98
2018-07-25T17:06:10.065Z,26.05
2018-07-25T17:08:38.757Z,26.12
2018-07-25T17:11:07.738Z,26.23
2018-07-25T17:13:36.377Z,26.24
2018-07-25T17:16:05.067Z,26.23
2018-07-25T17:18:33.644Z,26.22
2018-07-25T17:21:02.243Z,26.04
2018-07-25T17:23:30.762Z,25.89
2018-07-25T17:25:59.310Z,25.94
2018-07-25T17:28:27.854Z,25.71
2018-07-25T17:30:57.176Z,25.59
2018-07-25T17:33:25.808Z,25.62
2018-07-25T17:35:54.545Z,25.49
2018-07-25T17:38:23.231Z,25.37
2018-07-25T17:40:51.914Z,25.37
2018-07-25T17:43:20.863Z,25.01
2018-07-25T17:45:49.496Z,24.89
2018-07-25T17:48:18.177Z,24.98
2018-07-25T17:50:47.476Z,25.03
2018-07-25T17:53:16.160Z,24.79
2018-07-25T17:55:44.690Z,24.81
2018-07-25T17:58:13.429Z,24.79
2018-07-25T18:00:42.114Z,24.70
2018-07-25T18:03:11.420Z,24.57
2018-07-25T18:05:40.204Z,24.62
2018-07-25T18:08:08.886Z,24.57
2018-07-25T18:10:37.572Z,24.47
2018-07-25T18:13:11.485Z,24.45
2018-07-25T18:15:40.102Z,24.39
2018-07-25T18:18:08.748Z,24.34
2018-07-25T18:20:38.613Z,23.90
2018-07-25T18:23:07.316Z,24.17
2018-07-25T18:25:35.931Z,24.07
2018-07-25T18:28:04.514Z,24.07
2018-07-25T18:30:33.051Z,24.03
2018-07-25T18:33:01.658Z,23.97
2018-07-25T18:35:30.283Z,23.89
2018-07-25T18:37:58.895Z,23.78
2018-07-25T18:40:27.579Z,23.65
2018-07-25T18:42:56.281Z,23.63
2018-07-25T18:45:24.919Z,23.56
2018-07-25T18:47:53.694Z,23.49
2018-07-25T18:50:22.315Z,23.42
2018-07-25T18:52:51.063Z,23.32
2018-07-25T18:55:19.830Z,23.27
2018-07-25T18:57:48.429Z,23.20
2018-07-25T19:00:17.116Z,23.14
2018-07-25T19:02:45.729Z,23.09
2018-07-25T19:05:14.336Z,22.96
2018-07-25T19:07:42.891Z,22.92
2018-07-25T19:10:11.782Z,22.83
2018-07-25T19:12:40.295Z,22.76
2018-07-25T19:15:14.174Z,22.68
2018-07-25T19:17:42.746Z,22.62
2018-07-25T19:20:11.357Z,21.90
2018-07-25T19:22:39.938Z,22.44
2018-07-25T19:25:08.576Z,22.33
2018-07-25T19:27:37.191Z,22.21
2018-07-25T19:30:06.218Z,22.14
2018-07-25T19:32:34.837Z,22.05
2018-07-25T19:35:03.604Z,21.92
2018-07-25T19:37:32.149Z,21.89
2018-07-25T19:40:00.792Z,21.79
2018-07-25T19:42:29.481Z,21.68
2018-07-25T19:44:58.078Z,21.61
2018-07-25T19:47:26.747Z,21.51
2018-07-25T19:49:55.342Z,21.41
2018-07-25T19:52:24.118Z,21.32
2018-07-25T19:54:52.984Z,21.21
2018-07-25T19:57:21.630Z,21.16
2018-07-25T19:59:50.218Z,21.15
2018-07-25T20:02:18.722Z,21.15
2018-07-25T20:04:47.354Z,21.11
2018-07-25T20:07:16.035Z,21.07
2018-07-25T20:09:44.707Z,21.03
2018-07-25T20:12:13.498Z,20.99
2018-07-25T20:14:47.432Z,20.91
2018-07-25T20:17:16.807Z,20.82
2018-07-25T20:19:45.758Z,20.75
2018-07-25T20:22:14.888Z,20.70
2018-07-25T20:24:44.193Z,20.63
2018-07-25T20:27:12.879Z,20.55
2018-07-25T20:29:42.492Z,20.49
2018-07-25T20:32:11.068Z,20.44
2018-07-25T20:34:40.368Z,20.35
2018-07-25T20:37:09.031Z,20.27
2018-07-25T20:39:37.519Z,20.19
2018-07-25T20:42:06.847Z,20.11
2018-07-25T20:44:36.250Z,20.03
2018-07-25T20:47:04.921Z,19.94
2018-07-25T20:49:33.506Z,19.87
2018-07-25T20:52:02.091Z,19.80
2018-07-25T20:54:30.773Z,19.73
2018-07-25T20:56:59.458Z,19.67
2018-07-25T20:59:28.033Z,19.62
2018-07-25T21:01:57.444Z,19.56
2018-07-25T21:04:26.587Z,19.51
2018-07-25T21:06:55.118Z,19.43
2018-07-25T21:09:23.804Z,19.36
2018-07-25T21:11:52.491Z,19.32
2018-07-25T21:14:21.177Z,19.31
2018-07-25T21:16:49.757Z,19.26
2018-07-25T21:19:18.398Z,19.22
2018-07-25T21:21:47.070Z,19.16
2018-07-25T21:24:15.652Z,19.09
2018-07-25T21:26:44.760Z,19.04
2018-07-25T21:29:13.389Z,19.02
2018-07-25T21:31:42.021Z,18.96
2018-07-25T21:34:10.687Z,18.90
2018-07-25T21:36:39.192Z,18.86
2018-07-25T21:39:10.244Z,18.79
2018-07-25T21:41:38.868Z,18.75
2018-07-25T21:44:07.754Z,18.72
2018-07-25T21:46:36.544Z,18.66
2018-07-25T21:49:05.568Z,18.61
2018-07-25T21:51:34.219Z,18.57
2018-07-25T21:54:02.728Z,18.51
2018-07-25T21:56:31.231Z,18.47
2018-07-25T21:58:59.814Z,18.44
2018-07-25T22:01:28.450Z,18.39
2018-07-25T22:03:57.033Z,18.35
2018-07-25T22:06:25.820Z,18.31
2018-07-25T22:08:54.552Z,18.26
2018-07-25T22:11:23.147Z,18.15
2018-07-25T22:13:58.091Z,18.18
2018-07-25T22:16:27.836Z,18.15
2018-07-25T22:18:56.551Z,18.11
2018-07-25T22:21:25.134Z,18.07
2018-07-25T22:23:53.702Z,18.07
2018-07-25T22:26:22.315Z,18.05
2018-07-25T22:28:51.031Z,18.01
2018-07-25T22:31:20.149Z,17.97
2018-07-25T22:33:48.833Z,17.94
2018-07-25T22:36:17.360Z,17.90
2018-07-25T22:38:45.926Z,17.88
2018-07-25T22:41:14.532Z,17.85
2018-07-25T22:43:43.134Z,17.84
2018-07-25T22:46:11.747Z,17.82
2018-07-25T22:48:40.416Z,17.79
2018-07-25T22:51:09.018Z,17.77
2018-07-25T22:53:37.805Z,17.75
2018-07-25T22:56:06.477Z,17.73
2018-07-25T22:58:35.036Z,17.71
2018-07-25T23:01:03.759Z,17.69
2018-07-25T23:03:32.856Z,17.66
2018-07-25T23:06:01.440Z,17.65
2018-07-25T23:08:30.020Z,17.66
2018-07-25T23:10:58.705Z,17.64
2018-07-25T23:13:27.390Z,17.54
2018-07-25T23:15:56.029Z,17.59
2018-07-25T23:18:24.660Z,17.58
2018-07-25T23:20:53.960Z,17.54
2018-07-25T23:23:22.642Z,17.50
2018-07-25T23:25:51.270Z,17.44
2018-07-25T23:28:19.909Z,17.48
2018-07-25T23:30:48.534Z,17.49
2018-07-25T23:33:17.179Z,17.49
2018-07-25T23:35:45.866Z,17.46
2018-07-25T23:38:14.552Z,17.44
2018-07-25T23:40:43.151Z,17.42
2018-07-25T23:43:11.775Z,17.42
2018-07-25T23:45:40.338Z,17.39
2018-07-25T23:48:08.982Z,17.37
2018-07-25T23:50:37.667Z,17.30
2018-07-25T23:53:06.359Z,17.35
2018-07-25T23:55:35.140Z,17.32
2018-07-25T23:58:04.639Z,17.28
